Time;durP1;ratioP1;P1;durP2;ratioP2;P2;SDS_P1;SDS_P2;PMS_P1;PMS_P2;Temp;Humidity;BMP_temperature;BMP_pressure;BME280_temperature;BME280_humidity;BME280_pressure;Samples;Min_cycle;Max_cycle;Signal;HPM_P1;HPM_P2
2022/12/08 00:01:37;;;;;;;19.95;9.90;;;;;;;6.52;63.07;96788.25;4866193;28;20024;-77
2022/12/08 00:04:03;;;;;;;18.30;9.18;;;;;;;6.51;63.63;96787.47;4865199;28;20086;-76
2022/12/08 00:09:24;;;;;;;23.58;10.27;;;;;;;6.52;63.98;96773.50;4864138;28;20063;-76
2022/12/08 00:11:53;;;;;;;17.88;9.30;;;;;;;6.41;63.81;96768.34;4851523;29;20038;-77
2022/12/08 00:14:19;;;;;;;20.23;9.63;;;;;;;6.39;63.66;96771.16;4869712;28;20024;-75
2022/12/08 00:16:45;;;;;;;16.65;8.55;;;;;;;6.37;64.37;96773.19;4870379;28;20062;-76
2022/12/08 00:19:10;;;;;;;16.98;8.82;;;;;;;6.24;63.94;96771.63;4868711;29;20043;-76
2022/12/08 00:21:35;;;;;;;16.88;8.30;;;;;;;6.42;63.98;96765.53;4856211;29;20027;-76
2022/12/08 00:24:01;;;;;;;17.58;8.93;;;;;;;6.34;63.97;96765.88;4854880;29;20042;-76
2022/12/08 00:26:26;;;;;;;17.77;8.73;;;;;;;6.47;63.67;96757.88;4866586;28;20032;-77
2022/12/08 00:28:51;;;;;;;17.00;8.20;;;;;;;6.24;64.20;96750.16;4868364;29;20039;-76
2022/12/08 00:31:17;;;;;;;21.17;9.02;;;;;;;6.32;63.69;96753.19;4869530;28;20050;-76
2022/12/08 00:33:42;;;;;;;15.07;8.65;;;;;;;6.32;63.67;96752.38;4854200;29;20057;-76
2022/12/08 00:36:10;;;;;;;14.20;8.07;;;;;;;6.40;63.93;96756.44;4854471;29;20863;-76
2022/12/08 00:38:36;;;;;;;16.23;8.07;;;;;;;6.39;63.94;96740.13;4853838;29;20472;-76
2022/12/08 00:41:03;;;;;;;15.30;7.32;;;;;;;6.32;64.13;96744.63;4868086;28;20052;-76
2022/12/08 00:43:28;;;;;;;16.90;8.65;;;;;;;6.32;64.43;96742.03;4863029;29;20360;-76
2022/12/08 00:45:53;;;;;;;18.13;8.00;;;;;;;6.41;63.96;96743.28;4851581;29;20034;-76
2022/12/08 00:48:19;;;;;;;16.25;8.23;;;;;;;6.43;64.36;96746.44;4848332;29;20819;-76
2022/12/08 00:50:44;;;;;;;16.15;8.63;;;;;;;6.25;64.13;96738.81;4854395;29;20038;-76
2022/12/08 00:53:09;;;;;;;14.70;8.60;;;;;;;6.13;64.11;96731.06;4867474;29;20718;-76
2022/12/08 00:55:35;;;;;;;14.93;7.88;;;;;;;6.36;64.20;96736.22;4853112;29;20046;-76
2022/12/08 00:58:00;;;;;;;15.55;8.13;;;;;;;6.46;63.82;96733.03;4869094;28;20110;-76
2022/12/08 01:00:25;;;;;;;16.98;8.68;;;;;;;6.35;63.92;96728.66;4858671;28;20039;-76
2022/12/08 01:02:51;;;;;;;16.20;8.48;;;;;;;6.46;63.42;96733.03;4873175;29;20028;-76
2022/12/08 01:05:16;;;;;;;15.32;8.32;;;;;;;6.46;63.81;96730.47;4858637;29;20110;-76
2022/12/08 01:07:41;;;;;;;16.05;8.00;;;;;;;6.40;64.25;96726.19;4861782;29;20032;-76
2022/12/08 01:10:07;;;;;;;17.60;8.45;;;;;;;6.32;64.31;96727.34;4872781;28;20030;-76
2022/12/08 01:12:33;;;;;;;14.70;8.10;;;;;;;6.47;64.09;96731.25;4858394;29;20054;-76
2022/12/08 01:14:58;;;;;;;16.92;7.72;;;;;;;6.41;64.39;96722.59;4878839;28;20024;-76
2022/12/08 01:17:23;;;;;;;17.92;8.48;;;;;;;6.36;64.05;96730.25;4880619;28;20024;-76
2022/12/08 01:19:48;;;;;;;14.60;7.85;;;;;;;6.21;64.22;96728.13;4876776;28;20871;-75
2022/12/08 01:22:14;;;;;;;14.30;7.07;;;;;;;6.31;64.04;96728.34;4872833;28;20360;-76
2022/12/08 01:24:39;;;;;;;17.60;8.25;;;;;;;6.46;64.54;96729.66;4874330;29;20778;-76
2022/12/08 01:27:05;;;;;;;15.23;7.53;;;;;;;6.48;64.09;96718.09;4873539;28;20120;-76
2022/12/08 01:29:30;;;;;;;17.05;7.63;;;;;;;6.34;64.02;96725.31;4858738;29;20039;-76
2022/12/08 01:31:55;;;;;;;13.70;7.45;;;;;;;6.29;63.90;96719.22;4874370;28;20106;-76
2022/12/08 01:34:21;;;;;;;15.45;7.18;;;;;;;6.40;63.54;96715.84;4874293;29;20048;-76
2022/12/08 01:36:46;;;;;;;15.38;7.10;;;;;;;6.51;63.76;96714.25;4874480;28;20027;-76
2022/12/08 01:39:16;;;;;;;13.73;6.68;;;;;;;6.54;63.78;96711.97;4858000;29;20903;-76
2022/12/08 01:41:42;;;;;;;16.52;7.18;;;;;;;6.28;64.34;96720.25;4854397;29;20046;-76
2022/12/08 01:44:09;;;;;;;16.70;8.20;;;;;;;6.37;64.01;96716.28;4869799;28;20905;-76
2022/12/08 01:46:39;;;;;;;13.35;6.82;;;;;;;6.38;63.99;96717.88;4856108;29;20044;-76
2022/12/08 01:49:23;;;;;;;13.40;6.68;;;;;;;6.23;64.90;96715.00;4873260;28;20380;-76
2022/12/08 01:52:10;;;;;;;13.43;7.13;;;;;;;6.57;63.95;96714.09;4867251;28;20958;-76
2022/12/08 01:54:40;;;;;;;12.73;7.45;;;;;;;6.36;64.40;96712.94;4857584;29;20325;-77
2022/12/08 01:57:13;;;;;;;15.95;7.68;;;;;;;6.44;64.62;96704.03;4873896;28;20480;-76
2022/12/08 01:59:42;;;;;;;11.77;6.30;;;;;;;6.37;64.31;96700.78;4871316;28;20036;-75
2022/12/08 02:02:08;;;;;;;15.27;6.65;;;;;;;6.02;64.64;96693.88;4868161;28;20795;-76
2022/12/08 02:04:33;;;;;;;11.57;6.50;;;;;;;6.26;64.25;96680.94;4869811;29;20027;-77
2022/12/08 02:06:59;;;;;;;14.65;7.75;;;;;;;6.15;64.60;96687.66;4872131;28;20538;-76
2022/12/08 02:09:25;;;;;;;14.25;7.10;;;;;;;6.30;64.23;96687.19;4855968;29;20036;-77
2022/12/08 02:11:51;;;;;;;14.57;7.28;;;;;;;6.28;64.07;96686.66;4866660;28;20133;-76
2022/12/08 02:14:16;;;;;;;16.75;7.43;;;;;;;6.11;64.88;96691.72;4853587;29;20032;-76
2022/12/08 02:16:52;;;;;;;14.07;6.90;;;;;;;6.05;65.32;96687.47;4872363;28;20031;-76
2022/12/08 02:19:26;;;;;;;16.85;7.75;;;;;;;6.32;64.70;96677.41;4841167;29;20027;-76
2022/12/08 02:21:54;;;;;;;17.67;8.95;;;;;;;6.33;64.11;96679.00;4857830;29;20821;-77
2022/12/08 02:24:20;;;;;;;13.68;7.43;;;;;;;6.37;64.47;96680.09;4871658;29;20117;-77
2022/12/08 02:27:05;;;;;;;16.75;8.40;;;;;;;6.51;63.75;96681.41;4856887;29;20136;-76
2022/12/08 02:29:49;;;;;;;17.90;7.90;;;;;;;6.48;63.82;96681.88;4855942;29;20303;-77
2022/12/08 02:32:39;;;;;;;15.05;7.53;;;;;;;6.17;64.17;96675.34;4855967;29;20067;-77
2022/12/08 02:35:19;;;;;;;17.00;8.27;;;;;;;6.21;64.48;96675.66;4872120;28;20043;-76
2022/12/08 02:37:48;;;;;;;16.35;8.57;;;;;;;6.05;64.49;96672.75;4871313;29;20024;-76
2022/12/08 02:40:37;;;;;;;17.73;8.77;;;;;;;6.30;64.59;96675.06;4870719;28;20032;-76
2022/12/08 02:43:08;;;;;;;16.33;8.20;;;;;;;6.23;63.82;96676.22;4832243;29;20038;-76
2022/12/08 02:45:35;;;;;;;16.42;7.57;;;;;;;5.84;65.29;96676.66;4851802;29;20032;-77
2022/12/08 02:48:00;;;;;;;16.75;8.55;;;;;;;6.20;64.43;96664.50;4871360;28;20102;-77
2022/12/08 02:50:27;;;;;;;17.73;7.63;;;;;;;6.30;64.34;96669.88;4871428;29;20107;-76
2022/12/08 02:52:52;;;;;;;18.67;8.63;;;;;;;6.40;63.90;96668.53;4868630;28;20063;-76
2022/12/08 02:55:24;;;;;;;19.13;8.38;;;;;;;6.43;63.12;96657.72;4837429;29;20324;-77
2022/12/08 02:58:05;;;;;;;16.48;8.50;;;;;;;6.27;64.10;96654.84;4868805;28;20024;-77
2022/12/08 03:00:39;;;;;;;17.95;8.98;;;;;;;5.89;65.96;96660.50;4871306;29;20383;-76
2022/12/08 03:03:22;;;;;;;15.97;7.83;;;;;;;5.98;64.94;96654.00;4871692;28;20107;-77
2022/12/08 03:05:54;;;;;;;18.08;8.48;;;;;;;5.73;65.02;96649.06;4871181;28;20283;-76
2022/12/08 03:08:33;;;;;;;18.70;8.10;;;;;;;5.77;65.42;96650.94;4857221;29;20083;-76
2022/12/08 03:11:03;;;;;;;18.17;8.65;;;;;;;6.09;65.29;96639.50;4869241;29;20023;-76
2022/12/08 03:13:49;;;;;;;18.75;8.68;;;;;;;6.23;64.77;96637.44;4871173;28;20027;-76
2022/12/08 03:16:19;;;;;;;18.63;8.30;;;;;;;6.09;64.24;96637.69;4870824;29;20111;-76
2022/12/08 03:18:48;;;;;;;18.77;8.23;;;;;;;5.84;65.63;96635.34;4871411;28;20059;-77
2022/12/08 03:21:15;;;;;;;19.20;8.93;;;;;;;5.91;64.67;96641.19;4870834;28;20035;-76
2022/12/08 03:23:41;;;;;;;21.42;9.73;;;;;;;6.07;64.53;96638.94;4855634;29;20367;-77
2022/12/08 03:26:11;;;;;;;20.88;9.35;;;;;;;5.93;64.39;96633.19;4854458;28;20059;-76
2022/12/08 03:28:36;;;;;;;16.33;8.77;;;;;;;6.06;64.28;96637.34;4870290;29;20051;-76
2022/12/08 03:31:05;;;;;;;22.83;9.30;;;;;;;6.07;64.53;96636.34;4855294;29;20070;-76
2022/12/08 03:33:34;;;;;;;19.95;9.52;;;;;;;6.33;63.89;96638.41;4872722;28;20026;-76
2022/12/08 03:36:00;;;;;;;18.42;8.80;;;;;;;6.12;65.01;96628.72;4870844;28;20326;-77
2022/12/08 03:38:39;;;;;;;18.17;8.13;;;;;;;6.34;63.62;96629.66;4869242;29;20035;-77
2022/12/08 03:41:19;;;;;;;21.77;9.93;;;;;;;6.10;63.99;96628.94;4854646;29;20122;-77
2022/12/08 03:43:53;;;;;;;20.02;9.70;;;;;;;6.30;63.97;96630.31;4852583;29;20028;-76
2022/12/08 03:46:20;;;;;;;24.42;10.57;;;;;;;5.84;65.03;96622.41;4854180;29;20039;-76
2022/12/08 03:48:45;;;;;;;20.50;9.30;;;;;;;6.02;64.54;96618.94;4869666;29;20027;-77
2022/12/08 03:51:11;;;;;;;19.35;9.60;;;;;;;6.12;64.35;96616.56;4855797;29;20039;-77
2022/12/08 03:53:37;;;;;;;18.02;8.70;;;;;;;6.11;64.87;96614.97;4854196;29;20631;-77
2022/12/08 03:56:04;;;;;;;18.33;8.38;;;;;;;6.11;64.37;96617.56;4853511;29;20027;-76
2022/12/08 03:58:30;;;;;;;16.65;8.73;;;;;;;5.89;64.52;96606.25;4869951;28;20032;-77
2022/12/08 04:00:55;;;;;;;18.23;9.25;;;;;;;6.00;65.09;96602.88;4855461;29;20050;-76
2022/12/08 04:03:20;;;;;;;20.30;9.98;;;;;;;6.03;64.65;96605.00;4853554;29;20102;-76
2022/12/08 04:05:46;;;;;;;19.52;9.90;;;;;;;6.00;64.53;96600.31;4854140;29;20027;-76
2022/12/08 04:08:11;;;;;;;19.17;9.45;;;;;;;6.20;64.62;96594.72;4854059;29;20136;-77
2022/12/08 04:10:36;;;;;;;20.33;9.25;;;;;;;6.10;64.62;96594.53;4869069;29;20106;-76
2022/12/08 04:13:02;;;;;;;18.05;9.23;;;;;;;6.14;64.78;96586.09;4854466;29;20023;-77
2022/12/08 04:15:27;;;;;;;20.77;9.55;;;;;;;6.11;65.28;96589.13;4869817;29;20550;-77
2022/12/08 04:17:52;;;;;;;17.48;8.63;;;;;;;6.14;65.20;96582.72;4854394;29;20027;-76
2022/12/08 04:20:18;;;;;;;21.20;9.70;;;;;;;6.23;64.84;96583.16;4869931;29;20041;-77
2022/12/08 04:22:43;;;;;;;22.10;9.82;;;;;;;6.12;65.16;96589.94;4870272;28;20100;-77
2022/12/08 04:25:09;;;;;;;21.15;8.55;;;;;;;6.13;64.83;96586.31;4869688;29;20031;-77
2022/12/08 04:27:34;;;;;;;20.63;9.60;;;;;;;6.22;65.06;96579.78;4877174;28;20621;-77
2022/12/08 04:29:59;;;;;;;22.98;9.57;;;;;;;6.19;64.63;96582.81;4872584;28;20360;-77
2022/12/08 04:32:25;;;;;;;21.05;9.98;;;;;;;6.24;64.70;96582.91;4853702;29;21030;-77
2022/12/08 04:34:50;;;;;;;18.15;10.23;;;;;;;6.21;65.06;96574.84;4866381;29;20727;-77
2022/12/08 04:37:15;;;;;;;19.52;9.43;;;;;;;6.29;64.94;96574.44;4852800;29;20661;-76
2022/12/08 04:39:41;;;;;;;22.90;10.93;;;;;;;6.20;64.66;96571.44;4854081;29;20123;-77
2022/12/08 04:42:06;;;;;;;23.63;10.18;;;;;;;6.17;64.28;96571.94;4865496;28;20054;-77
2022/12/08 04:44:31;;;;;;;17.88;9.80;;;;;;;6.36;63.93;96582.88;4848595;28;20802;-77
2022/12/08 04:46:57;;;;;;;17.45;8.55;;;;;;;6.23;63.98;96565.06;4853169;29;20102;-77
2022/12/08 04:49:22;;;;;;;17.27;8.27;;;;;;;6.15;64.87;96574.75;4868909;29;20031;-77
2022/12/08 04:51:47;;;;;;;20.00;8.95;;;;;;;6.15;64.57;96569.59;4853494;29;20719;-77
2022/12/08 04:54:13;;;;;;;18.50;8.43;;;;;;;6.17;64.27;96569.34;4852103;29;20023;-76
2022/12/08 04:56:38;;;;;;;18.10;9.13;;;;;;;6.11;65.24;96568.44;4870238;29;20031;-77
2022/12/08 04:59:04;;;;;;;16.05;8.02;;;;;;;6.14;64.44;96568.00;4875095;28;20119;-76
2022/12/08 05:01:29;;;;;;;17.17;7.82;;;;;;;6.25;64.02;96568.97;4859226;28;20030;-76
2022/12/08 05:03:55;;;;;;;16.55;9.32;;;;;;;6.15;64.90;96569.59;4864234;28;20066;-77
2022/12/08 05:06:20;;;;;;;17.02;7.75;;;;;;;6.21;64.75;96574.84;4869166;28;20054;-77
2022/12/08 05:08:46;;;;;;;17.00;7.97;;;;;;;6.12;64.68;96566.69;4869448;29;20031;-77
2022/12/08 05:11:12;;;;;;;16.98;7.88;;;;;;;6.09;64.68;96565.31;4864656;29;20689;-77
2022/12/08 05:13:37;;;;;;;18.80;9.00;;;;;;;6.08;64.90;96560.38;4853981;29;20028;-77
2022/12/08 05:16:10;;;;;;;16.90;8.20;;;;;;;6.18;64.99;96558.75;4853483;29;20674;-77
2022/12/08 05:18:37;;;;;;;19.02;9.13;;;;;;;6.37;64.61;96567.13;4869040;29;20031;-77
2022/12/08 05:21:03;;;;;;;18.17;7.68;;;;;;;6.30;63.99;96565.69;4866890;29;20035;-77
2022/12/08 05:23:28;;;;;;;18.25;8.25;;;;;;;6.21;64.39;96557.53;4869266;29;20719;-77
2022/12/08 05:25:54;;;;;;;20.63;9.23;;;;;;;6.29;64.99;96564.91;4850547;29;20142;-77
2022/12/08 05:28:19;;;;;;;17.55;7.88;;;;;;;6.17;64.98;96556.44;4862103;28;20687;-76
2022/12/08 05:30:45;;;;;;;18.23;8.10;;;;;;;6.14;64.77;96552.50;4860430;28;20296;-76
2022/12/08 05:33:10;;;;;;;17.85;8.20;;;;;;;6.17;64.58;96548.69;4849865;29;20286;-77
2022/12/08 05:35:35;;;;;;;18.98;8.63;;;;;;;6.24;64.31;96549.31;4847722;29;20259;-77
2022/12/08 05:38:01;;;;;;;19.38;8.55;;;;;;;6.23;64.66;96545.16;4863194;28;20283;-77
2022/12/08 05:40:26;;;;;;;16.73;7.72;;;;;;;6.08;65.01;96552.63;4838938;29;20284;-77
2022/12/08 05:42:52;;;;;;;17.17;8.15;;;;;;;6.09;64.76;96547.22;4863451;29;20200;-77
2022/12/08 05:45:17;;;;;;;20.42;8.93;;;;;;;5.98;65.48;96546.25;4858138;28;20200;-76
2022/12/08 05:47:43;;;;;;;19.33;9.85;;;;;;;5.97;65.32;96549.06;4851450;29;20660;-77
2022/12/08 05:50:08;;;;;;;15.55;8.20;;;;;;;6.10;64.81;96550.59;4852044;29;20173;-77
2022/12/08 05:52:34;;;;;;;21.08;8.65;;;;;;;6.17;64.78;96557.19;4867778;29;20207;-76
2022/12/08 05:54:59;;;;;;;18.98;9.68;;;;;;;6.08;64.96;96553.41;4866390;28;20249;-76
2022/12/08 05:57:25;;;;;;;18.25;7.78;;;;;;;6.10;64.94;96551.41;4865910;29;20375;-76
2022/12/08 05:59:50;;;;;;;17.52;8.15;;;;;;;6.20;64.96;96548.19;4851009;29;20208;-77
2022/12/08 06:02:15;;;;;;;23.17;9.32;;;;;;;6.10;65.18;96545.41;4866388;28;20233;-76
2022/12/08 06:04:41;;;;;;;18.30;8.25;;;;;;;6.23;65.14;96552.13;4863038;28;20283;-76
2022/12/08 06:07:07;;;;;;;20.30;8.65;;;;;;;6.23;64.50;96554.72;4850848;29;20297;-76
2022/12/08 06:09:33;;;;;;;19.33;8.73;;;;;;;6.26;65.08;96547.28;4846375;28;20161;-76
2022/12/08 06:11:59;;;;;;;20.13;9.15;;;;;;;6.29;64.61;96548.59;4849746;29;20319;-77
2022/12/08 06:14:24;;;;;;;21.42;8.85;;;;;;;6.33;64.60;96547.13;4850898;29;20300;-76
2022/12/08 06:16:50;;;;;;;21.58;10.25;;;;;;;6.01;65.76;96552.75;4863916;28;20722;-76
2022/12/08 06:19:15;;;;;;;20.42;8.23;;;;;;;6.14;65.02;96547.31;4849589;29;20185;-76
2022/12/08 06:21:40;;;;;;;16.60;9.00;;;;;;;6.10;65.57;96550.59;4851751;29;20275;-76
2022/12/08 06:24:06;;;;;;;19.25;8.50;;;;;;;6.09;65.73;96544.66;4849481;29;20218;-76
2022/12/08 06:26:31;;;;;;;18.73;8.82;;;;;;;6.15;64.57;96548.91;4852155;29;20212;-77
2022/12/08 06:28:59;;;;;;;20.02;9.35;;;;;;;6.19;65.07;96551.81;4864510;29;20522;-77
2022/12/08 06:31:25;;;;;;;20.15;8.80;;;;;;;6.06;65.07;96557.25;4865924;29;20646;-76
2022/12/08 06:33:51;;;;;;;20.90;9.45;;;;;;;6.12;65.55;96549.34;4848390;29;20212;-77
2022/12/08 06:36:19;;;;;;;21.00;8.90;;;;;;;6.21;65.63;96557.53;4862562;28;20762;-77
2022/12/08 06:38:44;;;;;;;19.50;8.82;;;;;;;6.29;65.16;96554.56;4850541;29;20646;-77
2022/12/08 06:41:10;;;;;;;19.95;8.48;;;;;;;6.24;64.97;96554.47;4866618;29;20344;-77
2022/12/08 06:43:36;;;;;;;20.75;9.02;;;;;;;6.21;65.29;96552.34;4849927;29;20640;-77
2022/12/08 06:46:04;;;;;;;20.20;9.23;;;;;;;6.23;65.13;96546.97;4847811;29;20213;-76
2022/12/08 06:48:29;;;;;;;19.85;8.38;;;;;;;6.29;64.81;96551.19;4847934;29;20283;-77
2022/12/08 06:50:55;;;;;;;20.20;9.68;;;;;;;6.28;64.90;96552.22;4848392;29;20178;-77
2022/12/08 06:53:20;;;;;;;22.55;9.70;;;;;;;6.19;65.07;96550.00;4848212;29;20281;-77
2022/12/08 06:55:47;;;;;;;18.88;8.68;;;;;;;5.88;66.36;96553.00;4845749;29;20225;-77
2022/12/08 06:58:13;;;;;;;20.88;8.85;;;;;;;6.08;64.84;96552.63;4831743;29;20217;-76
2022/12/08 07:00:39;;;;;;;18.02;8.02;;;;;;;5.64;66.12;96558.22;4831716;29;20229;-76
2022/12/08 07:03:08;;;;;;;17.45;8.35;;;;;;;5.99;65.91;96552.22;4847183;29;20194;-77
2022/12/08 07:05:35;;;;;;;17.52;7.97;;;;;;;6.03;65.03;96557.69;4831582;29;20171;-76
2022/12/08 07:08:00;;;;;;;17.50;8.25;;;;;;;6.09;65.35;96551.63;4815936;29;20209;-77
2022/12/08 07:10:25;;;;;;;17.25;8.00;;;;;;;6.10;65.17;96548.81;4831434;29;20257;-77
2022/12/08 07:12:51;;;;;;;15.48;7.68;;;;;;;6.09;65.17;96556.78;4816581;29;20205;-76
2022/12/08 07:15:16;;;;;;;15.55;8.02;;;;;;;6.19;64.86;96555.16;4846737;28;20198;-77
2022/12/08 07:17:42;;;;;;;18.52;8.57;;;;;;;6.04;65.35;96561.88;4847220;29;20205;-76
2022/12/08 07:20:07;;;;;;;18.20;7.45;;;;;;;6.09;65.42;96554.97;4847256;29;20171;-76
2022/12/08 07:22:33;;;;;;;16.20;8.07;;;;;;;6.09;65.23;96551.63;4847621;29;20297;-77
2022/12/08 07:24:58;;;;;;;14.77;7.68;;;;;;;6.13;65.58;96560.47;4847781;29;20198;-76
2022/12/08 07:27:23;;;;;;;17.88;7.80;;;;;;;5.82;65.35;96557.28;4832826;29;20389;-76
2022/12/08 07:29:49;;;;;;;15.90;8.05;;;;;;;6.10;65.22;96556.56;4831312;29;20209;-76
2022/12/08 07:32:14;;;;;;;13.88;7.65;;;;;;;6.10;65.61;96555.75;4831069;29;20207;-77
2022/12/08 07:34:39;;;;;;;16.42;7.45;;;;;;;6.02;65.18;96558.72;4832945;29;20221;-76
2022/12/08 07:37:05;;;;;;;16.73;8.52;;;;;;;6.09;65.51;96559.38;4833239;29;20192;-76
2022/12/08 07:39:30;;;;;;;18.80;8.45;;;;;;;5.77;66.03;96554.59;4846917;29;20193;-77
2022/12/08 07:41:55;;;;;;;15.55;7.82;;;;;;;5.88;66.29;96553.78;4830424;29;20585;-77
2022/12/08 07:44:21;;;;;;;17.08;8.30;;;;;;;5.96;65.62;96550.06;4832780;29;20229;-76
2022/12/08 07:46:46;;;;;;;18.15;7.75;;;;;;;5.98;65.12;96538.50;4846277;29;20205;-76
2022/12/08 07:49:12;;;;;;;19.42;9.07;;;;;;;6.08;65.40;96547.47;4846543;29;20256;-77
2022/12/08 07:51:38;;;;;;;17.55;8.98;;;;;;;6.01;65.84;96545.00;4859985;29;20337;-76
2022/12/08 07:54:03;;;;;;;17.58;7.88;;;;;;;6.04;65.21;96534.22;4865324;29;20164;-77
2022/12/08 07:56:29;;;;;;;17.15;7.70;;;;;;;6.10;65.27;96545.41;4864783;29;20192;-76
2022/12/08 07:58:54;;;;;;;15.80;7.97;;;;;;;5.88;65.74;96527.16;4865585;29;20177;-76
2022/12/08 08:01:25;;;;;;;15.68;7.68;;;;;;;6.24;64.86;96545.91;4848906;29;20335;-76
2022/12/08 08:03:51;;;;;;;17.15;7.75;;;;;;;5.97;65.14;96543.91;4849577;29;20203;-76
2022/12/08 08:06:16;;;;;;;17.77;7.55;;;;;;;6.07;65.80;96543.31;4848785;29;20219;-77
2022/12/08 08:08:41;;;;;;;16.48;8.00;;;;;;;6.27;64.70;96532.53;4864121;28;20746;-77
2022/12/08 08:11:07;;;;;;;18.50;9.13;;;;;;;6.21;64.16;96536.84;4865281;29;20709;-76
2022/12/08 08:13:33;;;;;;;21.63;8.40;;;;;;;6.20;65.02;96540.44;4865079;28;20224;-76
2022/12/08 08:16:06;;;;;;;15.80;7.93;;;;;;;6.31;64.89;96538.84;4849042;29;20283;-77
2022/12/08 08:18:33;;;;;;;18.52;8.02;;;;;;;6.06;65.30;96547.69;4864984;29;20213;-76
2022/12/08 08:20:58;;;;;;;16.52;7.03;;;;;;;6.18;64.49;96543.25;4864647;29;20366;-77
2022/12/08 08:23:23;;;;;;;15.02;7.72;;;;;;;6.23;64.16;96544.38;4865290;29;20768;-77
2022/12/08 08:25:49;;;;;;;18.58;8.57;;;;;;;6.08;64.72;96545.66;4864954;29;20728;-77
2022/12/08 08:28:14;;;;;;;17.55;8.43;;;;;;;6.11;64.85;96542.59;4864955;29;20212;-77
2022/12/08 08:30:40;;;;;;;16.67;8.18;;;;;;;6.17;64.86;96541.69;4864950;29;20196;-76
2022/12/08 08:33:05;;;;;;;19.50;9.27;;;;;;;6.23;64.89;96545.16;4865020;29;20211;-77
2022/12/08 08:35:32;;;;;;;18.25;8.35;;;;;;;6.28;65.17;96540.06;4865257;28;20172;-77
2022/12/08 08:37:57;;;;;;;17.38;8.48;;;;;;;6.20;64.79;96545.59;4864968;29;20169;-76
2022/12/08 08:40:23;;;;;;;17.52;8.35;;;;;;;6.12;65.64;96546.78;4863934;29;20217;-76
2022/12/08 08:42:48;;;;;;;16.98;8.52;;;;;;;6.31;64.74;96546.59;4851239;29;20185;-76
2022/12/08 08:45:14;;;;;;;20.30;9.10;;;;;;;6.18;64.47;96538.06;4852044;29;20196;-77
2022/12/08 08:47:39;;;;;;;19.73;10.60;;;;;;;6.29;65.14;96536.47;4845904;29;20284;-77
2022/12/08 08:50:05;;;;;;;18.75;8.43;;;;;;;6.40;64.57;96540.00;4848281;28;20337;-77
2022/12/08 08:52:30;;;;;;;20.33;9.57;;;;;;;6.35;64.60;96537.34;4865600;29;20733;-77
2022/12/08 08:54:56;;;;;;;18.83;9.70;;;;;;;6.26;64.97;96536.16;4865101;29;20169;-76
2022/12/08 08:57:21;;;;;;;18.80;8.60;;;;;;;6.36;64.77;96537.09;4865024;29;20204;-77
2022/12/08 08:59:46;;;;;;;17.20;8.68;;;;;;;6.34;64.91;96539.16;4864809;29;20357;-76
2022/12/08 09:02:16;;;;;;;21.67;10.02;;;;;;;6.13;65.79;96530.22;4850908;29;20256;-77
2022/12/08 09:04:42;;;;;;;18.50;9.32;;;;;;;6.43;64.79;96538.78;4849337;29;20194;-77
2022/12/08 09:07:07;;;;;;;17.90;8.77;;;;;;;6.49;64.11;96548.16;4864623;29;20173;-77
2022/12/08 09:09:33;;;;;;;19.48;8.85;;;;;;;6.51;63.79;96541.75;4865639;29;20356;-77
2022/12/08 09:11:58;;;;;;;19.10;8.73;;;;;;;6.37;64.22;96543.06;4864808;28;20190;-76
2022/12/08 09:14:24;;;;;;;23.10;9.75;;;;;;;6.50;64.15;96537.59;4865657;29;20358;-76
2022/12/08 09:16:49;;;;;;;21.40;9.27;;;;;;;6.46;64.54;96540.88;4865004;29;20646;-77
2022/12/08 09:19:15;;;;;;;24.65;10.40;;;;;;;6.34;64.50;96538.34;4849635;29;20196;-76
2022/12/08 09:21:40;;;;;;;21.88;10.77;;;;;;;6.31;64.79;96537.03;4868689;29;20168;-77
2022/12/08 09:24:07;;;;;;;19.60;10.13;;;;;;;6.41;64.67;96535.63;4868480;29;20220;-76
2022/12/08 09:26:32;;;;;;;21.52;10.25;;;;;;;6.48;64.73;96536.28;4852037;29;20248;-76
2022/12/08 09:28:58;;;;;;;18.77;9.20;;;;;;;6.38;64.06;96531.72;4854573;29;20225;-77
2022/12/08 09:31:23;;;;;;;20.15;10.05;;;;;;;6.44;64.53;96523.00;4867713;29;20670;-76
2022/12/08 09:33:52;;;;;;;20.75;10.40;;;;;;;6.12;65.53;96523.50;4852474;29;20759;-77
2022/12/08 09:36:18;;;;;;;22.63;9.95;;;;;;;6.17;65.27;96521.03;4868056;29;20208;-76
2022/12/08 09:38:45;;;;;;;20.63;10.35;;;;;;;6.22;64.59;96527.28;4852397;29;20362;-77
2022/12/08 09:41:31;;;;;;;16.98;8.07;;;;;;;6.40;64.67;96514.16;4854272;29;20639;-76
2022/12/08 09:44:34;;;;;;;17.48;8.02;;;;;;;6.48;64.33;96521.53;4850609;29;20201;-77
2022/12/08 09:47:00;;;;;;;19.92;8.82;;;;;;;6.40;64.26;96524.50;4835145;29;20696;-77
2022/12/08 09:50:00;;;;;;;16.73;8.85;;;;;;;6.47;64.49;96524.34;4833327;29;20166;-76
2022/12/08 09:52:30;;;;;;;17.65;9.13;;;;;;;6.43;64.17;96518.09;4864375;29;20370;-77
2022/12/08 09:55:03;;;;;;;19.50;9.88;;;;;;;6.60;63.55;96512.91;4852484;28;20424;-77
2022/12/08 09:57:30;;;;;;;16.52;8.68;;;;;;;6.36;64.12;96516.44;4852290;29;20276;-77
2022/12/08 10:00:03;;;;;;;16.88;8.65;;;;;;;6.47;64.26;96514.78;4867578;29;20279;-76
2022/12/08 10:02:29;;;;;;;15.55;8.65;;;;;;;6.50;63.98;96511.72;4836940;29;20138;-77
2022/12/08 10:04:57;;;;;;;16.83;8.43;;;;;;;6.49;64.16;96511.97;4868129;28;20295;-77
2022/12/08 10:07:46;;;;;;;16.58;8.35;;;;;;;6.68;63.73;96507.34;4868201;29;20116;-77
2022/12/08 10:10:39;;;;;;;16.35;8.18;;;;;;;6.67;63.66;96503.97;4868040;29;20291;-76
2022/12/08 10:13:42;;;;;;;15.68;8.02;;;;;;;6.62;63.58;96495.38;4852285;29;20367;-77
2022/12/08 10:16:41;;;;;;;16.45;8.70;;;;;;;6.63;63.79;96499.50;4836943;29;20640;-77
2022/12/08 10:19:16;;;;;;;17.77;8.43;;;;;;;6.61;64.23;96493.78;4851650;29;20303;-77
2022/12/08 10:21:42;;;;;;;18.58;8.70;;;;;;;6.54;64.48;96499.91;4868259;28;20181;-77
2022/12/08 10:24:17;;;;;;;13.90;7.65;;;;;;;6.66;63.93;96491.28;4851773;28;20775;-77
2022/12/08 10:26:42;;;;;;;;;;;;;;;6.79;63.28;96485.03;4852419;28;20308;-77
2022/12/08 10:29:12;;;;;;;14.80;7.50;;;;;;;6.56;64.16;96482.34;4867825;29;20194;-77
2022/12/08 10:31:37;;;;;;;12.65;7.45;;;;;;;6.55;64.26;96485.94;4866613;28;20559;-77
2022/12/08 10:34:18;;;;;;;12.60;7.82;;;;;;;6.70;63.93;96480.25;4854238;29;20199;-77
2022/12/08 10:36:57;;;;;;;13.35;7.82;;;;;;;6.63;63.58;96484.00;4867109;29;20225;-77
2022/12/08 10:39:45;;;;;;;15.43;8.00;;;;;;;6.74;63.44;96478.72;4851875;29;20287;-77
2022/12/08 10:42:14;;;;;;;13.75;7.35;;;;;;;6.63;64.00;96474.44;4867204;28;20216;-77
2022/12/08 10:44:56;;;;;;;15.27;7.40;;;;;;;6.76;63.05;96475.91;4858301;28;20613;-77
2022/12/08 10:47:24;;;;;;;13.13;7.50;;;;;;;6.69;63.00;96459.78;4833183;29;20299;-77
2022/12/08 10:50:11;;;;;;;13.93;7.80;;;;;;;6.77;63.61;96467.16;4848551;29;20185;-77
2022/12/08 10:52:40;;;;;;;12.15;7.22;;;;;;;6.88;63.45;96462.88;4852174;29;20215;-77
2022/12/08 10:55:14;;;;;;;13.05;7.72;;;;;;;6.83;63.75;96463.59;4852809;29;20483;-77
2022/12/08 10:57:39;;;;;;;13.90;7.63;;;;;;;6.60;63.71;96450.81;4867133;29;20664;-77
2022/12/08 11:00:05;;;;;;;13.15;7.47;;;;;;;6.74;63.13;96457.25;4851683;29;20216;-77
2022/12/08 11:02:31;;;;;;;13.98;7.72;;;;;;;6.80;63.64;96451.13;4867448;28;20100;-77
2022/12/08 11:05:00;;;;;;;13.30;7.38;;;;;;;6.87;63.57;96454.34;4866617;29;20205;-77
2022/12/08 11:07:26;;;;;;;13.20;7.50;;;;;;;6.88;63.48;96452.53;4867539;28;20203;-78
2022/12/08 11:09:54;;;;;;;13.63;7.18;;;;;;;6.97;63.09;96445.16;4866793;29;20288;-77
2022/12/08 11:12:20;;;;;;;13.70;7.20;;;;;;;7.08;63.15;96442.44;4867561;28;20198;-77
2022/12/08 11:14:49;;;;;;;12.25;6.97;;;;;;;7.16;62.91;96436.06;4866783;29;20297;-77
2022/12/08 11:17:14;;;;;;;12.20;6.90;;;;;;;7.10;62.24;96435.22;4866792;29;20323;-77
2022/12/08 11:19:42;;;;;;;14.27;6.80;;;;;;;7.13;63.01;96433.97;4867420;28;20289;-77
2022/12/08 11:22:34;;;;;;;11.70;6.53;;;;;;;7.30;61.82;96426.16;4866752;29;20267;-77
2022/12/08 11:25:16;;;;;;;11.68;6.25;;;;;;;7.21;62.02;96425.75;4850974;29;20122;-77
2022/12/08 11:27:45;;;;;;;13.82;6.75;;;;;;;7.13;62.39;96426.22;4867137;29;20216;-77
2022/12/08 11:30:35;;;;;;;12.98;7.25;;;;;;;7.44;61.65;96423.97;4866701;29;20201;-77
2022/12/08 11:33:10;;;;;;;12.07;6.85;;;;;;;7.26;61.81;96414.69;4850854;29;20307;-77
2022/12/08 11:35:38;;;;;;;13.07;7.18;;;;;;;7.19;61.85;96420.06;4866170;29;20287;-77
2022/12/08 11:38:12;;;;;;;13.52;7.47;;;;;;;7.21;61.88;96414.63;4851182;29;20204;-77
2022/12/08 11:40:40;;;;;;;12.50;6.77;;;;;;;7.29;61.33;96417.59;4866778;29;20212;-77
2022/12/08 11:43:11;;;;;;;11.68;7.15;;;;;;;7.42;60.95;96411.28;4866432;28;20288;-77